KDAA/DAA METAR and TAF weather

Enter ICAO airport designator
Station Type Date Time Source
KDAA METAR 2019/08/24 08:56 UTC NOAA

KDAA 240856Z AUTO 32003KT 10SM CLR 18/16 A3012 RMK AO2 SLP202 T01750155 52011 $


Station Type Date Time Source
KDAA Decoded METAR 2019/08/24 08:56 UTC NOAA

Station name not available
Aug 24, 2019 - 04:56 AM EDT / 2019.08.24 0856 UTC
Wind: from the NW (320 degrees) at 3 MPH (3 KT):0
Visibility: 10 mile(s):0
Sky conditions: clear
Temperature: 63.5 F (17.5 C)
Dew Point: 59.9 F (15.5 C)
Relative Humidity: 88%
Pressure (altimeter): 30.12 in. Hg (1019 hPa)
Pressure tendency: 0.03 inches (1.1 hPa) higher than three hours ago
ob: KDAA 240856Z AUTO 32003KT 10SM CLR 18/16 A3012 RMK AO2 SLP202 T01750155 52011
cycle: 9

Station Type Date Time Source
KDAA TAF 2019/08/24 01:09 UTC NOAA

TAF KDAA 240100Z 2401/2507 36006KT 9999 FEW030 BKN040 BKN120 QNH3005INS
BECMG 2417/2418 03009KT 9999 SCT060 QNH3013INS TX26/2421Z TN20/2409Z LAST NO
AMDS AFT 2401 NEXT 2609

Example: see airport list